Douglas, North Dakota
Current Conditions -  °F | °C
As of 9:54 PM on Saturday 25 Oct 2014 (Local Time) from KMOT Reporting Station
Clear Clear  
Wind Chill:   Ceiling: Unl
Heat Index:   Visibility: 10mi
Dew Point: -2°   Wind: 6mph
Humidity: 58%   Direction: 130°SE
Pressure: 29.91"   Gusts: NA
Location:  47.86°N, 101.5°W
Report Text: KMOT 260254Z AUTO 13005KT 10SM CLR 06/M02 A2991 RMK AO2 SLP141 T00561022 58023
Loading
Personal Weather Stations






























Interactive Weather Map
Tropical Storm Tracking
New forecast layout! Learn more

10-Day Weather Forecast

Advertisements
Track Severe Weather on mobile